createdAt,value
2022-11-05T00:00:37.695Z,15.93
2022-11-05T00:03:30.029Z,21.90
2022-11-05T00:06:20.049Z,20.30
2022-11-05T00:09:06.796Z,23.98
2022-11-05T00:11:54.210Z,24.50
2022-11-05T00:14:40.728Z,21.75
2022-11-05T00:17:09.911Z,17.48
2022-11-05T00:19:39.096Z,19.83
2022-11-05T00:22:27.057Z,18.83
2022-11-05T00:25:13.544Z,19.48
2022-11-05T00:27:42.808Z,20.60
2022-11-05T00:30:13.983Z,15.60
2022-11-05T00:32:43.040Z,20.23
2022-11-05T00:35:12.376Z,17.80
2022-11-05T00:37:48.738Z,17.50
2022-11-05T00:40:19.637Z,21.90
2022-11-05T00:43:06.193Z,24.23
2022-11-05T00:45:35.639Z,17.13
2022-11-05T00:48:33.751Z,21.65
2022-11-05T00:51:03.151Z,19.63
2022-11-05T00:53:33.549Z,19.98
2022-11-05T00:56:03.342Z,23.00
2022-11-05T00:58:32.385Z,18.58
2022-11-05T01:01:03.007Z,16.80
2022-11-05T01:03:33.887Z,21.38
2022-11-05T01:06:09.416Z,23.85
2022-11-05T01:08:40.756Z,24.80
2022-11-05T01:11:12.085Z,21.05
2022-11-05T01:13:41.719Z,18.38
2022-11-05T01:16:12.029Z,18.63
2022-11-05T01:18:41.215Z,21.33
2022-11-05T01:21:15.873Z,22.38
2022-11-05T01:23:46.494Z,22.77
2022-11-05T01:26:15.951Z,19.70
2022-11-05T01:28:45.002Z,19.15
2022-11-05T01:31:14.293Z,19.15
2022-11-05T01:33:43.233Z,19.98
2022-11-05T01:36:12.706Z,21.77
2022-11-05T01:38:41.911Z,20.10
2022-11-05T01:41:12.796Z,20.05
2022-11-05T01:43:50.172Z,16.92
2022-11-05T01:46:23.215Z,16.52
2022-11-05T01:49:00.074Z,23.75
2022-11-05T01:51:32.421Z,19.35
2022-11-05T01:54:04.165Z,18.65
2022-11-05T01:56:38.489Z,18.17
2022-11-05T01:59:12.699Z,18.42
2022-11-05T02:01:42.330Z,21.75
2022-11-05T02:04:16.435Z,19.95
2022-11-05T02:06:47.167Z,17.08
2022-11-05T02:09:23.377Z,21.48
2022-11-05T02:11:54.166Z,15.95
2022-11-05T02:14:23.282Z,20.73
2022-11-05T02:16:57.685Z,19.00
2022-11-05T02:20:09.553Z,17.45
2022-11-05T02:23:21.609Z,13.85
2022-11-05T02:26:36.578Z,17.02
2022-11-05T02:29:37.137Z,15.00
2022-11-05T02:32:16.839Z,17.42
2022-11-05T02:34:56.761Z,14.95
2022-11-05T02:40:07.166Z,14.25
2022-11-05T02:42:44.814Z,16.92
2022-11-05T02:45:26.895Z,17.85
2022-11-05T02:48:08.832Z,17.98
2022-11-05T02:50:49.021Z,17.17
2022-11-05T02:53:26.149Z,17.13
2022-11-05T02:56:00.452Z,17.38
2022-11-05T02:58:30.577Z,17.88
2022-11-05T03:01:02.240Z,18.77
2022-11-05T03:03:36.606Z,17.60
2022-11-05T03:06:33.477Z,24.55
2022-11-05T03:09:20.955Z,18.85
2022-11-05T03:12:03.325Z,15.70
2022-11-05T03:14:44.643Z,19.08
2022-11-05T03:17:20.627Z,19.42
2022-11-05T03:20:03.012Z,22.10
2022-11-05T03:22:38.602Z,22.00
2022-11-05T03:25:13.811Z,19.38
2022-11-05T03:27:48.400Z,20.00
2022-11-05T03:31:16.540Z,22.48
2022-11-05T03:33:47.779Z,26.42
2022-11-05T03:36:24.542Z,15.48
2022-11-05T03:38:57.391Z,19.98
2022-11-05T03:41:29.475Z,18.30
2022-11-05T03:44:04.330Z,20.15
2022-11-05T03:46:38.163Z,20.80
2022-11-05T03:49:12.820Z,23.92
2022-11-05T03:51:48.066Z,21.60
2022-11-05T03:54:17.839Z,21.75
2022-11-05T03:56:56.066Z,20.75
2022-11-05T03:59:26.239Z,22.47
2022-11-05T04:01:56.049Z,22.98
2022-11-05T04:04:25.581Z,18.85
2022-11-05T04:07:13.313Z,20.83
2022-11-05T04:10:00.256Z,25.50
2022-11-05T04:12:46.672Z,19.35
2022-11-05T04:15:16.017Z,20.67
2022-11-05T04:17:43.978Z,22.83
2022-11-05T04:20:30.809Z,22.55
2022-11-05T04:23:19.802Z,21.67
2022-11-05T04:25:49.125Z,23.17
2022-11-05T04:28:18.419Z,23.67
2022-11-05T04:33:17.126Z,22.92
2022-11-05T04:35:48.009Z,24.70
2022-11-05T04:38:20.402Z,26.77
2022-11-05T04:40:50.458Z,25.90
2022-11-05T04:43:20.988Z,25.02
2022-11-05T04:45:50.584Z,23.95
2022-11-05T04:48:19.549Z,26.75
2022-11-05T04:50:48.877Z,26.02
2022-11-05T04:53:19.290Z,21.35
2022-11-05T04:55:48.509Z,22.88
2022-11-05T04:58:17.725Z,22.20
2022-11-05T05:00:47.070Z,26.20
2022-11-05T05:03:16.349Z,20.90
2022-11-05T05:05:45.679Z,24.08
2022-11-05T05:08:14.774Z,23.00
2022-11-05T05:10:45.475Z,25.27
2022-11-05T05:13:14.596Z,27.05
2022-11-05T05:15:44.005Z,23.70
2022-11-05T05:18:13.028Z,27.23
2022-11-05T05:20:59.357Z,21.45
2022-11-05T05:23:28.662Z,22.85
2022-11-05T05:26:00.833Z,25.17
2022-11-05T05:28:29.987Z,24.65
2022-11-05T05:31:01.260Z,29.23
2022-11-05T05:33:30.327Z,24.00
2022-11-05T05:36:00.116Z,21.35
2022-11-05T05:41:02.550Z,21.77
2022-11-05T05:43:32.537Z,19.90
2022-11-05T05:46:04.513Z,21.70
2022-11-05T05:48:33.544Z,21.23
2022-11-05T05:51:03.214Z,22.88
2022-11-05T05:53:33.015Z,23.90
2022-11-05T05:56:04.618Z,24.15
2022-11-05T05:58:36.371Z,28.42
2022-11-05T06:01:11.000Z,31.58
2022-11-05T06:03:43.595Z,26.55
2022-11-05T06:06:19.809Z,26.92
2022-11-05T06:08:49.328Z,26.77
2022-11-05T06:13:48.935Z,24.67
2022-11-05T06:16:19.577Z,32.15
2022-11-05T06:18:49.069Z,30.92
2022-11-05T06:23:48.413Z,23.20
2022-11-05T06:26:20.132Z,25.30
2022-11-05T06:28:49.491Z,24.67
2022-11-05T06:33:47.859Z,22.67
2022-11-05T06:36:18.871Z,22.15
2022-11-05T06:38:48.088Z,27.05
2022-11-05T06:41:17.511Z,28.08
2022-11-05T06:43:48.221Z,25.17
2022-11-05T06:46:17.550Z,26.55
2022-11-05T06:48:46.596Z,26.10
2022-11-05T06:51:16.043Z,29.42
2022-11-05T06:53:45.174Z,28.30
2022-11-05T06:56:14.743Z,25.60
2022-11-05T06:58:43.850Z,25.85
2022-11-05T07:01:14.787Z,27.92
2022-11-05T07:03:45.262Z,31.05
2022-11-05T07:06:14.691Z,27.30
2022-11-05T07:08:43.749Z,27.30
2022-11-05T07:11:13.168Z,27.77
2022-11-05T07:13:42.512Z,30.25
2022-11-05T07:16:13.128Z,27.40
2022-11-05T07:18:42.352Z,27.48
2022-11-05T07:21:11.622Z,26.05
2022-11-05T07:23:40.881Z,26.55
2022-11-05T07:26:10.083Z,24.45
2022-11-05T07:28:39.204Z,27.70
2022-11-05T07:31:08.473Z,26.83
2022-11-05T07:33:38.887Z,27.55
2022-11-05T07:36:09.256Z,23.85
2022-11-05T07:38:38.325Z,27.10
2022-11-05T07:41:07.634Z,25.83
2022-11-05T07:43:36.631Z,25.13
2022-11-05T07:46:11.179Z,29.40
2022-11-05T07:48:44.094Z,28.08
2022-11-05T07:51:13.355Z,25.13
2022-11-05T07:53:45.310Z,29.13
2022-11-05T07:56:15.263Z,24.42
2022-11-05T07:58:44.343Z,25.95
2022-11-05T08:01:15.408Z,25.73
2022-11-05T08:06:14.957Z,22.45
2022-11-05T08:08:43.936Z,19.80
2022-11-05T08:11:13.444Z,21.30
2022-11-05T08:13:44.069Z,24.90
2022-11-05T08:16:13.414Z,27.38
2022-11-05T08:18:42.492Z,27.15
2022-11-05T08:21:13.225Z,27.38
2022-11-05T08:23:43.139Z,27.10
2022-11-05T08:26:12.554Z,32.50
2022-11-05T08:28:41.521Z,29.30
2022-11-05T08:31:10.852Z,28.38
2022-11-05T08:33:39.828Z,35.70
2022-11-05T08:36:09.904Z,34.58
2022-11-05T08:41:09.706Z,29.55
2022-11-05T08:43:38.823Z,29.23
2022-11-05T08:46:08.592Z,28.15
2022-11-05T08:48:37.544Z,27.00
2022-11-05T08:51:07.166Z,28.15
2022-11-05T08:53:36.568Z,30.13
2022-11-05T08:56:07.623Z,29.10
2022-11-05T08:58:37.649Z,28.00
2022-11-05T09:01:07.276Z,28.23
2022-11-05T09:03:36.570Z,27.52
2022-11-05T09:06:06.114Z,36.80
2022-11-05T09:08:35.271Z,23.83
2022-11-05T09:11:04.475Z,22.70
2022-11-05T09:13:35.637Z,20.95
2022-11-05T09:16:05.632Z,28.95
2022-11-05T09:18:35.717Z,26.17
2022-11-05T09:21:04.952Z,30.50
2022-11-05T09:23:33.942Z,28.58
2022-11-05T09:26:03.198Z,27.15
2022-11-05T09:28:32.488Z,27.10
2022-11-05T09:33:35.737Z,26.48
2022-11-05T09:36:06.000Z,25.45
2022-11-05T09:38:35.987Z,25.90
2022-11-05T09:41:07.857Z,20.65
2022-11-05T09:43:41.969Z,21.17
2022-11-05T09:46:19.070Z,24.00
2022-11-05T09:48:51.050Z,18.42
2022-11-05T09:51:24.070Z,19.10
2022-11-05T09:53:54.077Z,16.58
2022-11-05T09:56:27.563Z,13.13
2022-11-05T09:59:02.838Z,11.73
2022-11-05T10:01:37.331Z,14.30
2022-11-05T10:04:13.984Z,11.70
2022-11-05T10:06:48.953Z,9.82
2022-11-05T10:09:25.107Z,11.40
2022-11-05T10:11:59.266Z,7.80
2022-11-05T10:14:32.289Z,8.23
2022-11-05T10:17:13.800Z,8.27
2022-11-05T10:19:48.645Z,8.85
2022-11-05T10:22:20.135Z,7.95
2022-11-05T10:24:51.608Z,7.13
2022-11-05T10:27:24.444Z,9.93
2022-11-05T10:29:54.073Z,7.95
2022-11-05T10:32:29.354Z,8.13
2022-11-05T10:35:00.908Z,8.57
2022-11-05T10:37:31.972Z,6.80
2022-11-05T10:40:01.916Z,8.07
2022-11-05T10:42:47.943Z,7.40
2022-11-05T10:45:26.684Z,7.85
2022-11-05T10:48:15.382Z,8.05
2022-11-05T10:50:46.534Z,7.82
2022-11-05T10:53:18.041Z,10.18
2022-11-05T10:55:49.763Z,9.77
2022-11-05T10:58:25.565Z,10.57
2022-11-05T11:01:11.773Z,6.22
2022-11-05T11:03:45.479Z,7.97
2022-11-05T11:06:21.596Z,5.55
2022-11-05T11:08:52.491Z,8.05
2022-11-05T11:11:33.630Z,4.03
2022-11-05T11:14:06.753Z,9.85
2022-11-05T11:16:38.958Z,5.30
2022-11-05T11:19:28.051Z,7.60
2022-11-05T11:22:22.687Z,7.75
2022-11-05T11:24:54.232Z,4.40
2022-11-05T11:27:26.075Z,6.47
2022-11-05T11:30:00.664Z,9.90
2022-11-05T11:32:38.640Z,5.18
2022-11-05T11:35:25.047Z,5.90
2022-11-05T11:37:56.590Z,4.28
2022-11-05T11:40:31.743Z,10.73
2022-11-05T11:43:05.351Z,5.65
2022-11-05T11:45:39.610Z,7.70
2022-11-05T11:48:16.985Z,4.50
2022-11-05T11:50:49.358Z,5.60
2022-11-05T11:53:30.647Z,8.50
2022-11-05T11:56:16.808Z,5.13
2022-11-05T11:58:48.937Z,7.03
2022-11-05T12:01:42.603Z,5.57
2022-11-05T12:04:25.398Z,3.83
2022-11-05T12:07:14.478Z,3.88
2022-11-05T12:10:10.852Z,5.13
2022-11-05T12:12:48.896Z,4.60
2022-11-05T12:15:31.235Z,5.82
2022-11-05T12:18:03.789Z,3.35
2022-11-05T12:20:51.694Z,7.47
2022-11-05T12:23:54.675Z,5.43
2022-11-05T12:26:34.809Z,6.43
2022-11-05T12:29:35.739Z,6.95
2022-11-05T12:32:38.460Z,5.97
2022-11-05T12:35:20.533Z,7.65
2022-11-05T12:37:56.546Z,9.48
2022-11-05T12:40:44.719Z,4.93
2022-11-05T12:43:21.055Z,8.02
2022-11-05T12:46:03.917Z,8.48
2022-11-05T12:48:47.506Z,6.57
2022-11-05T12:51:33.973Z,11.60
2022-11-05T12:54:15.483Z,11.70
2022-11-05T12:56:50.874Z,9.20
2022-11-05T12:59:26.095Z,4.40
2022-11-05T13:01:59.536Z,7.15
2022-11-05T13:04:37.006Z,8.95
2022-11-05T13:07:10.741Z,6.40
2022-11-05T13:09:44.770Z,7.65
2022-11-05T13:12:19.345Z,11.02
2022-11-05T13:14:54.051Z,14.93
2022-11-05T13:17:27.082Z,13.32
2022-11-05T13:20:03.288Z,4.65
2022-11-05T13:22:39.639Z,6.72
2022-11-05T13:25:18.280Z,7.35
2022-11-05T13:27:57.955Z,8.68
2022-11-05T13:30:31.430Z,10.40
2022-11-05T13:33:05.554Z,7.90
2022-11-05T13:35:45.233Z,8.80
2022-11-05T13:38:45.253Z,9.48
2022-11-05T13:41:27.870Z,10.50
2022-11-05T13:44:31.517Z,10.98
2022-11-05T13:47:33.099Z,10.13
2022-11-05T13:50:34.419Z,12.60
2022-11-05T13:53:33.059Z,9.38
2022-11-05T13:56:12.253Z,12.57
2022-11-05T13:59:16.543Z,12.07
2022-11-05T14:01:50.258Z,6.57
2022-11-05T14:04:29.186Z,9.65
2022-11-05T14:07:09.245Z,9.52
2022-11-05T14:09:39.593Z,13.30
2022-11-05T14:12:21.163Z,12.40
2022-11-05T14:14:59.110Z,12.98
2022-11-05T14:17:33.591Z,13.60
2022-11-05T14:20:45.983Z,11.00
2022-11-05T14:23:41.125Z,10.93
2022-11-05T14:26:22.266Z,18.70
2022-11-05T14:29:31.907Z,14.63
2022-11-05T14:32:09.908Z,11.05
2022-11-05T14:34:45.837Z,10.60
2022-11-05T14:37:29.636Z,11.60
2022-11-05T14:40:05.879Z,16.50
2022-11-05T14:42:36.876Z,23.23
2022-11-05T14:47:56.977Z,15.95
2022-11-05T14:50:37.913Z,13.82
2022-11-05T14:53:27.876Z,18.23
2022-11-05T14:56:03.577Z,15.18
2022-11-05T14:58:35.670Z,17.52
2022-11-05T15:01:07.730Z,14.48
2022-11-05T15:04:18.917Z,19.08
2022-11-05T15:07:13.831Z,16.50
2022-11-05T15:09:45.837Z,19.65
2022-11-05T15:12:21.095Z,19.42
2022-11-05T15:14:58.664Z,18.08
2022-11-05T15:17:31.786Z,32.92
2022-11-05T15:20:09.590Z,24.90
2022-11-05T15:22:44.794Z,20.42
2022-11-05T15:25:19.874Z,26.65
2022-11-05T15:28:01.963Z,27.17
2022-11-05T15:30:31.506Z,17.70
2022-11-05T15:33:12.158Z,19.00
2022-11-05T15:35:43.013Z,16.95
2022-11-05T15:38:29.055Z,20.48
2022-11-05T15:41:03.552Z,14.38
2022-11-05T15:43:33.859Z,15.52
2022-11-05T15:46:08.853Z,17.17
2022-11-05T15:48:38.376Z,22.10
2022-11-05T15:51:10.251Z,18.85
2022-11-05T15:56:52.219Z,29.88
2022-11-05T15:59:23.448Z,35.80
2022-11-05T16:01:56.629Z,28.80
2022-11-05T16:04:30.032Z,28.98
2022-11-05T16:07:07.734Z,23.65
2022-11-05T16:09:40.709Z,19.50
2022-11-05T16:12:31.930Z,18.75
2022-11-05T16:15:05.796Z,20.40
2022-11-05T16:17:48.785Z,23.70
2022-11-05T16:20:28.229Z,27.85
2022-11-05T16:23:00.739Z,27.42
2022-11-05T16:25:36.793Z,31.08
2022-11-05T16:28:07.676Z,28.02
2022-11-05T16:30:37.431Z,27.30
2022-11-05T16:33:08.663Z,25.48
2022-11-05T16:35:48.235Z,24.38
2022-11-05T16:38:20.299Z,24.90
2022-11-05T16:40:49.808Z,28.15
2022-11-05T16:43:21.709Z,25.35
2022-11-05T16:45:54.074Z,23.48
2022-11-05T16:48:23.160Z,26.30
2022-11-05T16:50:53.238Z,21.75
2022-11-05T16:53:23.756Z,29.52
2022-11-05T16:55:53.219Z,30.08
2022-11-05T16:58:25.155Z,26.95
2022-11-05T17:01:00.607Z,30.20
2022-11-05T17:03:30.212Z,27.40
2022-11-05T17:05:59.679Z,26.85
2022-11-05T17:08:30.095Z,28.20
2022-11-05T17:10:59.498Z,24.38
2022-11-05T17:13:28.661Z,24.05
2022-11-05T17:18:27.114Z,24.27
2022-11-05T17:23:28.745Z,26.10
2022-11-05T17:26:03.128Z,33.83
2022-11-05T17:28:32.937Z,18.85
2022-11-05T17:31:03.559Z,29.15
2022-11-05T17:33:32.922Z,21.55
2022-11-05T17:36:07.962Z,25.17
2022-11-05T17:38:37.247Z,25.25
2022-11-05T17:41:14.190Z,20.63
2022-11-05T17:43:43.574Z,23.40
2022-11-05T17:46:19.447Z,27.25
2022-11-05T17:48:49.461Z,40.97
2022-11-05T17:51:20.887Z,31.30
2022-11-05T17:53:50.644Z,31.45
2022-11-05T17:56:33.478Z,33.90
2022-11-05T17:59:04.855Z,29.67
2022-11-05T18:01:36.186Z,37.60
2022-11-05T18:04:08.873Z,35.67
2022-11-05T18:06:39.580Z,29.23
2022-11-05T18:09:09.709Z,26.23
2022-11-05T18:11:41.819Z,32.70
2022-11-05T18:14:11.227Z,29.15
2022-11-05T18:19:09.435Z,23.47
2022-11-05T18:21:38.939Z,21.30
2022-11-05T18:24:08.858Z,21.95
2022-11-05T18:26:39.555Z,19.85
2022-11-05T18:29:08.639Z,20.90
2022-11-05T18:31:38.044Z,25.33
2022-11-05T18:34:07.374Z,31.27
2022-11-05T18:36:36.583Z,13.63
2022-11-05T18:39:07.777Z,22.08
2022-11-05T18:41:37.059Z,15.60
2022-11-05T18:44:07.853Z,15.70
2022-11-05T18:49:28.444Z,12.70
2022-11-05T18:51:57.862Z,19.10
2022-11-05T18:54:26.910Z,18.98
2022-11-05T18:56:56.431Z,13.35
2022-11-05T18:59:37.584Z,21.50
2022-11-05T19:02:09.291Z,40.88
2022-11-05T19:04:38.975Z,36.55
2022-11-05T19:09:41.347Z,34.33
2022-11-05T19:12:11.820Z,32.08
2022-11-05T19:14:42.913Z,27.33
2022-11-05T19:17:15.649Z,24.58
2022-11-05T19:19:45.425Z,21.38
2022-11-05T19:22:15.406Z,22.38
2022-11-05T19:24:44.345Z,20.27
2022-11-05T19:27:13.834Z,18.52
2022-11-05T19:29:44.238Z,16.40
2022-11-05T19:32:13.699Z,20.88
2022-11-05T19:34:42.760Z,16.20
2022-11-05T19:37:15.045Z,15.23
2022-11-05T19:39:44.454Z,18.67
2022-11-05T19:42:13.737Z,13.18
2022-11-05T19:44:44.313Z,12.75
2022-11-05T19:47:13.564Z,15.55
2022-11-05T19:49:42.474Z,16.80
2022-11-05T19:52:12.061Z,13.32
2022-11-05T19:54:42.929Z,15.55
2022-11-05T19:57:13.971Z,18.38
2022-11-05T19:59:44.873Z,23.13
2022-11-05T20:02:17.137Z,24.13
2022-11-05T20:04:47.036Z,16.25
2022-11-05T20:07:19.290Z,18.08
2022-11-05T20:09:50.108Z,15.95
2022-11-05T20:12:21.965Z,17.83
2022-11-05T20:14:54.077Z,18.45
2022-11-05T20:17:25.707Z,17.65
2022-11-05T20:19:55.910Z,11.00
2022-11-05T20:22:25.655Z,16.77
2022-11-05T20:24:54.583Z,17.88
2022-11-05T20:27:24.302Z,20.02
2022-11-05T20:29:54.630Z,21.02
2022-11-05T20:32:24.231Z,20.27
2022-11-05T20:34:53.233Z,16.90
2022-11-05T20:37:24.294Z,19.33
2022-11-05T20:39:53.489Z,21.05
2022-11-05T20:42:24.034Z,17.05
2022-11-05T20:44:55.140Z,14.52
2022-11-05T20:47:25.935Z,16.27
2022-11-05T20:49:55.493Z,19.05
2022-11-05T20:52:25.893Z,20.20
2022-11-05T20:54:55.824Z,30.58
2022-11-05T20:57:25.607Z,30.13
2022-11-05T20:59:56.112Z,26.45
2022-11-05T21:02:25.723Z,33.17
2022-11-05T21:04:54.817Z,34.33
2022-11-05T21:07:24.914Z,33.97
2022-11-05T21:09:53.917Z,34.75
2022-11-05T21:12:23.802Z,33.25
2022-11-05T21:14:53.092Z,28.35
2022-11-05T21:17:23.713Z,17.65
2022-11-05T21:19:53.263Z,22.48
2022-11-05T21:24:51.603Z,30.55
2022-11-05T21:27:21.010Z,22.65
2022-11-05T21:29:50.605Z,19.58
2022-11-05T21:32:20.403Z,15.75
2022-11-05T21:34:50.989Z,17.55
2022-11-05T21:37:20.529Z,13.70
2022-11-05T21:39:49.595Z,17.55
2022-11-05T21:42:19.123Z,17.45
2022-11-05T21:44:48.233Z,18.13
2022-11-05T21:47:17.747Z,14.20
2022-11-05T21:49:47.158Z,11.88
2022-11-05T21:52:35.133Z,15.40
2022-11-05T21:55:22.155Z,19.98
2022-11-05T21:58:08.638Z,16.73
2022-11-05T22:00:38.251Z,12.52
2022-11-05T22:05:38.059Z,23.52
2022-11-05T22:08:09.387Z,17.42
2022-11-05T22:10:38.660Z,18.52
2022-11-05T22:13:07.933Z,17.08
2022-11-05T22:15:37.127Z,16.80
2022-11-05T22:18:06.566Z,17.55
2022-11-05T22:20:38.573Z,16.88
2022-11-05T22:23:11.408Z,13.20
2022-11-05T22:25:40.599Z,15.05
2022-11-05T22:28:10.225Z,12.88
2022-11-05T22:30:39.476Z,17.88
2022-11-05T22:33:08.663Z,17.48
2022-11-05T22:35:39.936Z,14.35
2022-11-05T22:38:12.888Z,14.07
2022-11-05T22:40:42.266Z,15.18
2022-11-05T22:43:11.486Z,12.95
2022-11-05T22:45:40.606Z,10.52
2022-11-05T22:48:10.157Z,18.73
2022-11-05T22:50:39.560Z,16.58
2022-11-05T22:53:10.287Z,13.77
2022-11-05T22:55:41.158Z,16.58
2022-11-05T22:58:11.288Z,16.17
2022-11-05T23:00:40.490Z,11.85
2022-11-05T23:03:09.922Z,10.32
2022-11-05T23:05:39.432Z,11.60
2022-11-05T23:08:28.775Z,16.33
2022-11-05T23:11:23.991Z,14.32
2022-11-05T23:13:53.373Z,13.18
2022-11-05T23:16:39.834Z,11.02
2022-11-05T23:19:28.349Z,13.75
2022-11-05T23:22:14.650Z,11.15
2022-11-05T23:24:45.448Z,12.65
2022-11-05T23:27:14.544Z,8.35
2022-11-05T23:29:43.769Z,8.75
2022-11-05T23:32:27.189Z,13.30
2022-11-05T23:34:57.799Z,9.77
2022-11-05T23:37:47.820Z,10.30
2022-11-05T23:40:20.091Z,16.73
2022-11-05T23:43:06.974Z,17.65
2022-11-05T23:45:56.344Z,12.18
2022-11-05T23:48:28.516Z,13.18
2022-11-05T23:51:00.911Z,11.80
2022-11-05T23:53:31.161Z,11.65
2022-11-05T23:56:05.404Z,10.80
2022-11-05T23:58:34.894Z,9.00
